Terminal Aerodrome Forecast
Issued by NWS

Home | Current Version | Previous Version | Graphics & Text | Print | Product List | Glossary On
Versions: 1 2 3 4 5 6 7 8 9 10 11 12 13 14 15 16 17 18 19 20 21 22
020
FTUS43 KGRB 220520
TAFMTW
TAF
KMTW 220520Z 2206/2306 VRB03KT 1/4SM -DZ FG OVC003
     FM221600 VRB03KT 1/2SM FG OVC003
     FM221800 34004KT 4SM BR OVC010
     FM230100 36003KT 3SM BR OVC008=

USA.gov is the U.S. government's official web portal to all federal, state and local government web resources and services.